Itanagar, India
Current Conditions -  °F | °C
As of 6:20 AM on Tuesday 23 Dec 2014 (Local Time) from VGHS Reporting Station
Moderate Fog Moderate Fog  
Wind Chill: 59°   Ceiling: 400
Heat Index: 59°   Visibility: 0.31mi
Dew Point: 57°   Wind: 0mph
Humidity: 94%   Direction: NA
Pressure: 29.94"   Gusts: NA
Location:  27.13°N, 93.62°E
Report Text: VGHS 230120Z 00000KT 0500 FG BKN004 15/14 Q1014 TEMPO S/VIS0200M
Loading
Personal Weather Stations






























Interactive Weather Map New forecast layout! Learn more

10-Day Weather Forecast

Advertisements
Track Severe Weather on mobile